Time;durP1;ratioP1;P1;durP2;ratioP2;P2;SDS_P1;SDS_P2;PMS_P1;PMS_P2;Temp;Humidity;BMP_temperature;BMP_pressure;BME280_temperature;BME280_humidity;BME280_pressure;Samples;Min_cycle;Max_cycle;Signal;HPM_P1;HPM_P2
2024/02/15 00:02:16;;;;;;;353.55;29.60;;;;;;;;;;4974514;28;20581;-57
2024/02/15 00:05:11;;;;;;;582.78;37.78;;;;;;;;;;4973843;28;20055;-58
2024/02/15 00:07:59;;;;;;;412.10;32.65;;;;;;;;;;4972398;28;20050;-58
2024/02/15 00:10:53;;;;;;;548.13;36.95;;;;;;;;;;4974680;28;20144;-60
2024/02/15 00:13:40;;;;;;;469.20;35.00;;;;;;;;;;4972222;28;20676;-63
2024/02/15 00:16:41;;;;;;;811.22;46.70;;;;;;;;;;4974900;28;20058;-64
2024/02/15 00:19:36;;;;;;;461.23;34.42;;;;;;;;;;4984230;28;20559;-64
2024/02/15 00:22:29;;;;;;;548.40;35.80;;;;;;;;;;4991308;28;20107;-64
2024/02/15 00:25:17;;;;;;;638.90;40.53;;;;;;;;;;4990126;28;20077;-64
2024/02/15 00:28:12;;;;;;;480.25;38.33;;;;;;;;;;4996979;28;20081;-64
2024/02/15 00:30:58;;;;;;;304.63;30.38;;;;;;;;;;4994318;28;20535;-51
2024/02/15 00:33:53;;;;;;;312.42;29.08;;;;;;;;;;4996809;28;20580;-52
2024/02/15 00:36:43;;;;;;;370.52;32.42;;;;;;;;;;4994010;28;20070;-53
2024/02/15 00:39:36;;;;;;;303.27;29.58;;;;;;;;;;4992675;28;20561;-54
2024/02/15 00:42:24;;;;;;;567.97;37.78;;;;;;;;;;4994442;28;20054;-64
2024/02/15 00:45:17;;;;;;;495.92;33.13;;;;;;;;;;4992433;28;20056;-63
2024/02/15 00:48:06;;;;;;;365.35;29.80;;;;;;;;;;4991397;28;20050;-63
2024/02/15 00:50:59;;;;;;;412.95;29.38;;;;;;;;;;4993668;28;20598;-64
2024/02/15 00:53:47;;;;;;;325.98;30.92;;;;;;;;;;4988655;28;20057;-63
2024/02/15 00:56:40;;;;;;;310.50;27.33;;;;;;;;;;4992355;28;20057;-63
2024/02/15 00:59:28;;;;;;;574.80;38.17;;;;;;;;;;4992606;28;20142;-57
2024/02/15 01:02:21;;;;;;;451.80;31.38;;;;;;;;;;4988756;28;20508;-57
2024/02/15 01:05:09;;;;;;;426.10;31.45;;;;;;;;;;4993527;28;20060;-58
2024/02/15 01:08:02;;;;;;;308.23;27.02;;;;;;;;;;4991690;28;20058;-49
2024/02/15 01:10:50;;;;;;;483.05;32.65;;;;;;;;;;4989383;28;20300;-57
2024/02/15 01:13:44;;;;;;;389.80;28.65;;;;;;;;;;4990986;28;20104;-58
2024/02/15 01:16:31;;;;;;;167.45;24.33;;;;;;;;;;4992668;28;20057;-62
2024/02/15 01:19:31;;;;;;;428.70;33.08;;;;;;;;;;4972396;28;20060;-58
2024/02/15 01:22:18;;;;;;;271.13;26.10;;;;;;;;;;4971378;28;20046;-57
2024/02/15 01:25:14;;;;;;;761.13;48.63;;;;;;;;;;4990113;28;20058;-55
2024/02/15 01:28:02;;;;;;;175.50;24.77;;;;;;;;;;4991099;28;20049;-62
2024/02/15 01:30:54;;;;;;;315.95;28.98;;;;;;;;;;4994590;28;20545;-62
2024/02/15 01:33:41;;;;;;;375.70;31.80;;;;;;;;;;4990939;28;20046;-62
2024/02/15 01:36:35;;;;;;;410.25;31.50;;;;;;;;;;4994253;28;20516;-63
2024/02/15 01:39:22;;;;;;;349.15;28.73;;;;;;;;;;4993232;28;20046;-65
2024/02/15 01:42:15;;;;;;;236.93;26.17;;;;;;;;;;4994179;28;20057;-65
2024/02/15 01:45:04;;;;;;;140.82;22.60;;;;;;;;;;4990192;28;20529;-65
2024/02/15 01:47:57;;;;;;;168.00;24.27;;;;;;;;;;4993482;28;20100;-64
2024/02/15 01:50:45;;;;;;;159.77;24.80;;;;;;;;;;4990858;28;20398;-65
2024/02/15 01:53:39;;;;;;;180.10;25.92;;;;;;;;;;4992882;28;20068;-64
2024/02/15 01:56:33;;;;;;;184.65;24.23;;;;;;;;;;4997046;28;20093;-62
2024/02/15 01:59:22;;;;;;;135.45;22.92;;;;;;;;;;4991351;28;20046;-62
2024/02/15 02:02:16;;;;;;;254.55;26.25;;;;;;;;;;4993539;28;20525;-62
2024/02/15 02:05:09;;;;;;;271.92;28.30;;;;;;;;;;4996876;28;20146;-57
2024/02/15 02:08:04;;;;;;;264.10;27.65;;;;;;;;;;4993070;28;20066;-65
2024/02/15 02:10:51;;;;;;;256.23;26.55;;;;;;;;;;4993218;28;20417;-65
2024/02/15 02:13:38;;;;;;;304.55;27.27;;;;;;;;;;4995115;28;20572;-65
2024/02/15 02:16:32;;;;;;;380.02;29.80;;;;;;;;;;4991347;28;20109;-64
2024/02/15 02:19:27;;;;;;;242.57;27.17;;;;;;;;;;4974954;28;20058;-65
2024/02/15 02:22:20;;;;;;;212.00;25.77;;;;;;;;;;4972201;28;20050;-65
2024/02/15 02:25:08;;;;;;;629.83;37.80;;;;;;;;;;4976364;28;20058;-59
2024/02/15 02:28:02;;;;;;;280.83;27.27;;;;;;;;;;4977029;28;20057;-57
2024/02/15 02:30:50;;;;;;;503.00;33.75;;;;;;;;;;4979236;28;20042;-60
2024/02/15 02:33:47;;;;;;;653.90;42.45;;;;;;;;;;4972385;28;20510;-61
2024/02/15 02:36:36;;;;;;;369.13;31.33;;;;;;;;;;4979602;28;20526;-65
2024/02/15 02:39:31;;;;;;;227.05;25.02;;;;;;;;;;4985059;28;20965;-64
2024/02/15 02:42:16;;;;;;;285.73;25.40;;;;;;;;;;4980475;28;21254;-65
2024/02/15 02:45:09;;;;;;;297.50;26.50;;;;;;;;;;4978947;28;20058;-65
2024/02/15 02:47:57;;;;;;;358.67;28.83;;;;;;;;;;4980950;28;20061;-64
2024/02/15 02:50:51;;;;;;;208.30;23.58;;;;;;;;;;4976898;28;20050;-65
2024/02/15 02:53:38;;;;;;;190.20;23.48;;;;;;;;;;4979435;28;20144;-66
2024/02/15 02:56:32;;;;;;;339.27;28.15;;;;;;;;;;4980109;28;20497;-65
2024/02/15 02:59:19;;;;;;;349.30;28.58;;;;;;;;;;4978716;28;20058;-65
2024/02/15 03:02:13;;;;;;;216.40;23.98;;;;;;;;;;4974343;28;20503;-58
2024/02/15 03:05:02;;;;;;;374.30;30.63;;;;;;;;;;4976412;28;20153;-64
2024/02/15 03:07:56;;;;;;;296.50;25.85;;;;;;;;;;4980186;28;20060;-65
2024/02/15 03:10:43;;;;;;;254.27;25.65;;;;;;;;;;4980295;28;20046;-66
2024/02/15 03:13:36;;;;;;;332.20;29.23;;;;;;;;;;4970385;28;20466;-65
2024/02/15 03:16:24;;;;;;;328.38;28.35;;;;;;;;;;4979010;28;20054;-65
2024/02/15 03:19:26;;;;;;;176.93;23.40;;;;;;;;;;4977195;28;20525;-65
2024/02/15 03:22:19;;;;;;;236.98;25.98;;;;;;;;;;4974188;28;20136;-57
2024/02/15 03:25:12;;;;;;;273.90;26.80;;;;;;;;;;4976602;28;20056;-65
2024/02/15 03:27:47;;;;;;;205.00;26.23;;;;;;;;;;4967324;28;20510;-65
2024/02/15 03:30:21;;;;;;;281.23;28.45;;;;;;;;;;4965482;28;20078;-65
2024/02/15 03:33:08;;;;;;;269.88;28.90;;;;;;;;;;4968972;28;20745;-65
2024/02/15 03:36:03;;;;;;;246.68;25.73;;;;;;;;;;4976602;28;20069;-65
2024/02/15 03:38:57;;;;;;;195.43;25.65;;;;;;;;;;4970034;28;20058;-64
2024/02/15 03:41:45;;;;;;;619.17;41.28;;;;;;;;;;4975469;28;20184;-65
2024/02/15 03:44:38;;;;;;;1002.25;58.80;;;;;;;;;;4974885;28;20056;-64
2024/02/15 03:47:33;;;;;;;600.72;39.03;;;;;;;;;;4977559;28;20046;-64
2024/02/15 03:50:21;;;;;;;742.55;48.35;;;;;;;;;;4976197;28;20058;-52
2024/02/15 03:53:13;;;;;;;327.10;29.92;;;;;;;;;;4963679;28;20053;-63
2024/02/15 03:56:00;;;;;;;223.27;26.25;;;;;;;;;;4974326;28;20300;-64
2024/02/15 03:58:53;;;;;;;266.80;29.05;;;;;;;;;;4975985;28;20058;-63
2024/02/15 04:01:41;;;;;;;219.80;27.70;;;;;;;;;;4975223;28;20081;-63
2024/02/15 04:04:36;;;;;;;257.42;28.42;;;;;;;;;;4976856;28;20517;-63
2024/02/15 04:07:24;;;;;;;254.50;30.17;;;;;;;;;;4975142;28;20326;-66
2024/02/15 04:10:18;;;;;;;393.48;33.65;;;;;;;;;;4972643;28;20057;-65
2024/02/15 04:13:04;;;;;;;253.45;28.65;;;;;;;;;;4977250;28;20082;-64
2024/02/15 04:15:58;;;;;;;287.30;29.35;;;;;;;;;;4975463;28;20113;-66
2024/02/15 04:19:04;;;;;;;233.05;30.15;;;;;;;;;;5001608;28;20057;-51
2024/02/15 04:22:00;;;;;;;166.77;24.95;;;;;;;;;;5014639;28;20045;-62
2024/02/15 04:24:46;;;;;;;230.48;27.65;;;;;;;;;;5015966;28;20084;-63
2024/02/15 04:27:39;;;;;;;272.25;30.10;;;;;;;;;;5011767;28;20049;-61
2024/02/15 04:30:27;;;;;;;161.35;24.00;;;;;;;;;;5016829;28;20049;-62
2024/02/15 04:33:20;;;;;;;213.48;27.02;;;;;;;;;;5016038;28;20068;-61
2024/02/15 04:36:08;;;;;;;284.08;30.75;;;;;;;;;;5012664;28;20046;-50
2024/02/15 04:39:04;;;;;;;267.60;30.08;;;;;;;;;;5018295;28;20103;-53
2024/02/15 04:41:52;;;;;;;168.70;27.08;;;;;;;;;;5011773;28;20057;-52
2024/02/15 04:44:45;;;;;;;131.15;24.45;;;;;;;;;;5011257;28;20057;-55
2024/02/15 04:47:33;;;;;;;194.70;27.88;;;;;;;;;;5013261;28;20061;-63
2024/02/15 04:50:26;;;;;;;137.60;24.13;;;;;;;;;;5013180;28;20489;-56
2024/02/15 04:53:21;;;;;;;136.80;24.17;;;;;;;;;;5016646;28;20998;-56
2024/02/15 04:56:13;;;;;;;151.57;26.17;;;;;;;;;;5010996;28;20696;-54
2024/02/15 04:59:04;;;;;;;119.05;24.00;;;;;;;;;;5011474;28;20053;-57
2024/02/15 05:01:53;;;;;;;132.38;25.60;;;;;;;;;;5010913;28;20103;-57
2024/02/15 05:04:47;;;;;;;207.55;26.55;;;;;;;;;;5019952;28;20057;-62
2024/02/15 05:07:37;;;;;;;104.43;22.55;;;;;;;;;;5018181;28;20068;-61
2024/02/15 05:10:29;;;;;;;162.77;27.73;;;;;;;;;;5017909;28;20370;-62
2024/02/15 05:13:16;;;;;;;255.75;29.60;;;;;;;;;;5018897;28;20478;-61
2024/02/15 05:16:09;;;;;;;370.33;34.13;;;;;;;;;;5015247;28;20103;-59
2024/02/15 05:19:03;;;;;;;150.70;26.33;;;;;;;;;;5014683;28;20050;-58
2024/02/15 05:21:57;;;;;;;172.13;27.73;;;;;;;;;;5013178;28;20072;-58
2024/02/15 05:24:45;;;;;;;138.25;25.33;;;;;;;;;;5016876;28;20041;-58
2024/02/15 05:27:39;;;;;;;173.43;26.90;;;;;;;;;;5013969;28;20108;-58
2024/02/15 05:30:26;;;;;;;119.75;25.77;;;;;;;;;;5009690;28;20093;-58
2024/02/15 05:33:21;;;;;;;139.98;26.58;;;;;;;;;;5015397;28;20623;-56
2024/02/15 05:36:08;;;;;;;180.00;28.42;;;;;;;;;;5016006;28;20068;-64
2024/02/15 05:39:02;;;;;;;144.20;27.27;;;;;;;;;;5015785;28;20492;-64
2024/02/15 05:41:48;;;;;;;127.25;25.55;;;;;;;;;;5012156;28;20528;-64
2024/02/15 05:44:42;;;;;;;129.43;25.08;;;;;;;;;;5013633;28;20169;-63
2024/02/15 05:47:29;;;;;;;114.05;25.92;;;;;;;;;;5015550;28;20622;-65
2024/02/15 05:50:23;;;;;;;167.52;28.67;;;;;;;;;;5005610;28;20076;-65
2024/02/15 05:53:10;;;;;;;287.80;32.55;;;;;;;;;;5006897;28;20045;-66
2024/02/15 05:56:08;;;;;;;193.93;30.42;;;;;;;;;;5007033;28;20066;-64
2024/02/15 05:59:09;;;;;;;311.70;32.40;;;;;;;;;;5008457;28;20050;-63
2024/02/15 06:01:49;;;;;;;132.90;26.10;;;;;;;;;;5012355;28;20472;-64
2024/02/15 06:04:42;;;;;;;587.58;39.35;;;;;;;;;;5015233;28;20045;-64
2024/02/15 06:07:31;;;;;;;171.60;26.48;;;;;;;;;;5013140;28;20061;-64
2024/02/15 06:10:25;;;;;;;116.20;24.20;;;;;;;;;;5015696;28;20045;-62
2024/02/15 06:13:19;;;;;;;167.90;29.38;;;;;;;;;;5019146;28;20524;-57
2024/02/15 06:16:12;;;;;;;715.58;50.90;;;;;;;;;;5015618;28;20231;-56
2024/02/15 06:19:14;;;;;;;244.05;31.40;;;;;;;;;;5010324;28;20061;-57
2024/02/15 06:22:08;;;;;;;304.95;32.92;;;;;;;;;;5019108;28;20061;-56
2024/02/15 06:25:02;;;;;;;126.45;24.98;;;;;;;;;;5020153;28;20053;-58
2024/02/15 06:27:51;;;;;;;125.40;25.90;;;;;;;;;;5021786;28;20049;-62
2024/02/15 06:42:01;;;;;;;451.52;38.08;;;;;;;;;;5020794;28;20045;-65
2024/02/15 06:44:48;;;;;;;522.85;38.17;;;;;;;;;;5017076;28;20509;-63
2024/02/15 06:47:46;;;;;;;106.00;24.40;;;;;;;;;;5021164;28;20162;-59
2024/02/15 06:50:34;;;;;;;183.13;29.42;;;;;;;;;;5009037;28;20059;-58
2024/02/15 06:53:30;;;;;;;284.35;34.13;;;;;;;;;;5016200;28;20136;-57
2024/02/15 06:56:15;;;;;;;114.28;25.92;;;;;;;;;;5016813;28;20061;-58
2024/02/15 06:59:10;;;;;;;105.25;27.60;;;;;;;;;;5016871;28;20505;-58
2024/02/15 07:02:10;;;;;;;101.97;25.02;;;;;;;;;;5009975;28;20480;-58
2024/02/15 07:05:05;;;;;;;98.28;26.25;;;;;;;;;;5018341;28;20502;-64
2024/02/15 07:07:59;;;;;;;100.53;24.52;;;;;;;;;;5014240;28;20060;-54
2024/02/15 07:10:46;;;;;;;90.10;25.52;;;;;;;;;;5020092;28;20057;-54
2024/02/15 07:13:39;;;;;;;88.57;22.98;;;;;;;;;;5015478;28;20099;-55
2024/02/15 07:16:27;;;;;;;92.57;25.10;;;;;;;;;;5015237;28;20498;-57
2024/02/15 07:19:36;;;;;;;82.05;22.90;;;;;;;;;;5012894;28;20081;-53
2024/02/15 07:22:28;;;;;;;103.78;26.38;;;;;;;;;;5016854;28;20056;-56
2024/02/15 07:25:21;;;;;;;87.60;22.73;;;;;;;;;;5019797;28;20045;-55
2024/02/15 07:28:09;;;;;;;98.60;24.83;;;;;;;;;;5015642;28;20053;-51
2024/02/15 07:31:02;;;;;;;87.30;24.25;;;;;;;;;;5012973;28;20748;-54
2024/02/15 07:33:53;;;;;;;88.72;23.95;;;;;;;;;;5017764;28;20115;-51
2024/02/15 07:36:47;;;;;;;80.82;26.58;;;;;;;;;;5018633;28;20427;-50
2024/02/15 07:39:36;;;;;;;83.35;21.08;;;;;;;;;;5013256;28;20618;-53
2024/02/15 07:42:29;;;;;;;76.20;21.85;;;;;;;;;;5020405;28;20053;-49
2024/02/15 07:45:17;;;;;;;86.10;25.05;;;;;;;;;;5015814;28;21000;-55
2024/02/15 07:48:09;;;;;;;84.15;24.75;;;;;;;;;;5004841;28;20402;-56
2024/02/15 07:50:58;;;;;;;85.85;23.20;;;;;;;;;;5019587;28;20041;-53
2024/02/15 07:53:51;;;;;;;90.40;24.95;;;;;;;;;;5019383;28;20053;-54
2024/02/15 07:56:45;;;;;;;81.20;24.42;;;;;;;;;;5011655;28;20049;-54
2024/02/15 07:59:32;;;;;;;82.70;24.95;;;;;;;;;;5015852;28;20045;-57
2024/02/15 08:02:28;;;;;;;78.07;23.83;;;;;;;;;;5013565;28;20057;-64
2024/02/15 08:05:20;;;;;;;78.00;24.75;;;;;;;;;;5015913;28;20251;-65
2024/02/15 08:08:07;;;;;;;75.88;24.75;;;;;;;;;;5015869;28;20049;-64
2024/02/15 08:11:02;;;;;;;82.15;22.67;;;;;;;;;;5016724;28;20053;-64
2024/02/15 08:13:50;;;;;;;70.68;21.25;;;;;;;;;;5017075;28;20119;-64
2024/02/15 08:16:43;;;;;;;75.10;23.85;;;;;;;;;;5013443;28;20056;-64
2024/02/15 08:19:38;;;;;;;64.25;22.88;;;;;;;;;;5016027;28;20065;-64
2024/02/15 08:22:31;;;;;;;58.83;22.48;;;;;;;;;;5019240;28;20061;-61
2024/02/15 08:25:19;;;;;;;64.03;22.92;;;;;;;;;;5011777;28;20052;-61
2024/02/15 08:28:13;;;;;;;62.88;23.50;;;;;;;;;;5011467;28;20116;-60
2024/02/15 08:31:00;;;;;;;59.53;22.80;;;;;;;;;;5017654;28;20053;-61
2024/02/15 08:33:53;;;;;;;63.15;23.50;;;;;;;;;;5017086;28;20053;-61
2024/02/15 08:36:41;;;;;;;68.75;22.70;;;;;;;;;;5014158;28;20526;-64
2024/02/15 08:39:35;;;;;;;60.55;22.40;;;;;;;;;;5017652;28;20213;-56
2024/02/15 08:42:22;;;;;;;56.70;20.70;;;;;;;;;;5015957;28;20127;-53
2024/02/15 08:45:16;;;;;;;61.75;22.63;;;;;;;;;;5016974;28;20068;-55
2024/02/15 08:48:11;;;;;;;56.65;22.33;;;;;;;;;;5013921;28;20045;-56
2024/02/15 08:50:58;;;;;;;56.73;21.83;;;;;;;;;;5016277;28;20057;-53
2024/02/15 08:54:00;;;;;;;58.58;22.05;;;;;;;;;;5016310;28;20065;-50
2024/02/15 08:56:46;;;;;;;54.42;21.05;;;;;;;;;;5014471;28;20390;-58
2024/02/15 08:59:42;;;;;;;49.92;19.77;;;;;;;;;;5016070;28;20086;-63
2024/02/15 09:02:28;;;;;;;50.70;21.85;;;;;;;;;;5014841;28;20137;-64
2024/02/15 09:05:22;;;;;;;53.00;19.05;;;;;;;;;;5013534;28;20049;-65
2024/02/15 09:08:09;;;;;;;49.53;19.17;;;;;;;;;;5015344;28;20056;-64
2024/02/15 09:11:03;;;;;;;46.08;19.80;;;;;;;;;;5013750;28;20144;-64
2024/02/15 09:13:51;;;;;;;47.08;18.13;;;;;;;;;;5017274;28;20652;-56
2024/02/15 09:16:44;;;;;;;51.40;19.90;;;;;;;;;;5019640;28;20057;-58
2024/02/15 09:19:39;;;;;;;44.30;18.88;;;;;;;;;;5014772;28;20057;-58
2024/02/15 09:22:35;;;;;;;47.03;19.83;;;;;;;;;;5017843;28;20053;-58
2024/02/15 09:25:25;;;;;;;47.60;20.67;;;;;;;;;;5013202;28;20436;-58
2024/02/15 09:28:22;;;;;;;50.00;19.40;;;;;;;;;;5015416;28;20064;-59
2024/02/15 09:31:06;;;;;;;43.53;19.55;;;;;;;;;;5016324;28;20132;-61
2024/02/15 09:34:00;;;;;;;43.80;20.13;;;;;;;;;;5011830;28;20053;-56
2024/02/15 09:36:47;;;;;;;44.80;19.25;;;;;;;;;;5018296;28;20049;-54
2024/02/15 09:39:42;;;;;;;42.47;18.67;;;;;;;;;;5016106;28;20115;-57
2024/02/15 09:42:29;;;;;;;34.30;17.25;;;;;;;;;;5019685;28;20084;-54
2024/02/15 09:45:24;;;;;;;38.25;17.00;;;;;;;;;;5018185;28;20049;-56
2024/02/15 09:48:12;;;;;;;33.05;17.75;;;;;;;;;;5016405;28;20410;-54
2024/02/15 09:51:05;;;;;;;35.72;16.85;;;;;;;;;;5016293;28;20053;-63
2024/02/15 09:53:53;;;;;;;33.30;16.67;;;;;;;;;;5008925;28;20494;-54
2024/02/15 09:56:47;;;;;;;30.38;16.13;;;;;;;;;;5014511;28;20517;-57
2024/02/15 09:59:44;;;;;;;32.67;16.25;;;;;;;;;;5018257;28;20049;-54
2024/02/15 10:02:38;;;;;;;26.38;14.55;;;;;;;;;;5018967;28;20413;-54
2024/02/15 10:05:25;;;;;;;27.70;15.32;;;;;;;;;;5015003;28;20080;-52
2024/02/15 10:08:21;;;;;;;28.65;15.38;;;;;;;;;;5017948;28;20050;-48
2024/02/15 10:11:11;;;;;;;24.02;14.30;;;;;;;;;;5017462;28;20058;-61
2024/02/15 10:14:11;;;;;;;28.52;14.15;;;;;;;;;;5018807;28;20045;-59
2024/02/15 10:17:06;;;;;;;25.55;13.60;;;;;;;;;;5019640;28;20122;-61
2024/02/15 10:20:06;;;;;;;29.30;14.73;;;;;;;;;;5015749;28;20057;-61
2024/02/15 10:23:09;;;;;;;25.85;14.23;;;;;;;;;;5010816;28;20068;-60
2024/02/15 10:26:19;;;;;;;24.43;14.37;;;;;;;;;;5018030;28;20587;-58
2024/02/15 10:29:14;;;;;;;26.42;14.07;;;;;;;;;;5014111;28;20067;-63
2024/02/15 10:32:01;;;;;;;26.08;14.35;;;;;;;;;;5018273;28;20057;-63
2024/02/15 10:34:55;;;;;;;25.77;13.50;;;;;;;;;;5014074;28;20072;-63
2024/02/15 10:37:43;;;;;;;27.03;13.03;;;;;;;;;;5017324;28;20045;-63
2024/02/15 10:40:42;;;;;;;25.45;13.98;;;;;;;;;;5008850;28;20323;-63
2024/02/15 10:43:28;;;;;;;24.92;13.10;;;;;;;;;;5010606;28;20072;-64
2024/02/15 10:46:22;;;;;;;24.50;12.93;;;;;;;;;;5013504;28;20065;-58
2024/02/15 10:49:09;;;;;;;25.33;13.95;;;;;;;;;;5015016;28;20053;-66
2024/02/15 10:52:04;;;;;;;22.58;13.15;;;;;;;;;;5012048;28;20049;-65
2024/02/15 10:55:03;;;;;;;27.05;13.75;;;;;;;;;;5016669;28;20054;-64
2024/02/15 10:57:59;;;;;;;22.70;12.93;;;;;;;;;;5014729;28;20437;-65
2024/02/15 11:00:47;;;;;;;25.77;13.68;;;;;;;;;;5019101;28;20467;-64
2024/02/15 11:03:49;;;;;;;26.23;14.07;;;;;;;;;;5019553;28;20049;-62
2024/02/15 11:06:41;;;;;;;23.67;12.57;;;;;;;;;;5016783;28;20603;-59
2024/02/15 11:09:32;;;;;;;22.10;11.75;;;;;;;;;;5018911;28;20103;-58
2024/02/15 11:12:19;;;;;;;24.73;13.35;;;;;;;;;;5017498;28;20056;-59
2024/02/15 11:15:36;;;;;;;24.80;13.55;;;;;;;;;;5014150;28;20046;-56
2024/02/15 11:18:41;;;;;;;24.92;13.00;;;;;;;;;;5019503;28;20061;-54
2024/02/15 11:22:03;;;;;;;19.05;10.65;;;;;;;;;;4993139;28;20409;-52
2024/02/15 11:24:49;;;;;;;28.10;14.75;;;;;;;;;;4999375;28;20049;-64
2024/02/15 11:27:43;;;;;;;28.17;13.65;;;;;;;;;;4992681;28;20100;-64
2024/02/15 11:30:34;;;;;;;26.73;12.82;;;;;;;;;;4996209;28;20061;-64
2024/02/15 11:33:31;;;;;;;25.48;13.90;;;;;;;;;;4994089;28;20074;-64
2024/02/15 11:36:32;;;;;;;23.83;12.52;;;;;;;;;;4998908;28;20061;-64
2024/02/15 11:39:43;;;;;;;21.42;11.90;;;;;;;;;;4991374;28;20798;-64
2024/02/15 11:42:31;;;;;;;25.02;13.60;;;;;;;;;;4997669;28;20465;-58
2024/02/15 11:45:25;;;;;;;23.83;11.75;;;;;;;;;;4997588;28;20050;-62
2024/02/15 11:48:19;;;;;;;22.85;12.65;;;;;;;;;;4996372;28;20051;-62
2024/02/15 11:51:07;;;;;;;20.60;12.60;;;;;;;;;;5000545;28;20077;-62
2024/02/15 11:54:10;;;;;;;19.85;10.93;;;;;;;;;;4998353;28;20046;-62
2024/02/15 11:57:09;;;;;;;20.77;12.27;;;;;;;;;;4996681;28;20061;-62
2024/02/15 12:20:07;;;;;;;17.17;10.32;;;;;;;;;;5011932;28;20058;-64
2024/02/15 12:22:58;;;;;;;19.95;11.15;;;;;;;;;;5016369;28;20061;-64
2024/02/15 12:25:44;;;;;;;18.00;11.05;;;;;;;;;;5019043;28;20057;-64
2024/02/15 12:28:38;;;;;;;17.67;10.48;;;;;;;;;;5010536;28;20061;-64
2024/02/15 12:31:28;;;;;;;19.05;10.95;;;;;;;;;;5015698;28;20394;-65
2024/02/15 12:34:21;;;;;;;15.65;10.45;;;;;;;;;;5018462;28;20563;-49
2024/02/15 12:37:12;;;;;;;15.50;9.90;;;;;;;;;;5016840;28;20175;-60
2024/02/15 12:40:16;;;;;;;16.77;10.25;;;;;;;;;;5019026;28;20213;-57
2024/02/15 12:43:13;;;;;;;15.70;9.57;;;;;;;;;;5019150;28;20053;-59
2024/02/15 12:46:01;;;;;;;15.45;9.20;;;;;;;;;;5017445;28;20050;-58
2024/02/15 12:49:08;;;;;;;14.35;9.75;;;;;;;;;;5017271;28;20111;-59
2024/02/15 12:52:15;;;;;;;13.68;9.00;;;;;;;;;;5014621;28;20142;-60
2024/02/15 12:55:13;;;;;;;15.43;9.63;;;;;;;;;;5010636;28;20062;-55
2024/02/15 12:58:03;;;;;;;16.50;10.50;;;;;;;;;;5011284;28;20053;-60
2024/02/15 13:00:58;;;;;;;15.80;10.00;;;;;;;;;;5019943;28;20107;-60
2024/02/15 13:03:42;;;;;;;14.75;8.90;;;;;;;;;;5013348;28;21287;-56
2024/02/15 13:06:37;;;;;;;14.88;8.70;;;;;;;;;;5017281;28;20052;-56
2024/02/15 13:09:23;;;;;;;12.65;8.73;;;;;;;;;;5021029;28;20527;-59
2024/02/15 13:12:19;;;;;;;15.82;9.30;;;;;;;;;;5018489;28;20054;-61
2024/02/15 13:15:06;;;;;;;12.98;8.07;;;;;;;;;;5017698;28;20591;-61
2024/02/15 13:18:04;;;;;;;14.77;8.38;;;;;;;;;;5016342;28;20057;-61
2024/02/15 13:20:55;;;;;;;11.02;7.10;;;;;;;;;;5015323;28;20136;-62
2024/02/15 13:23:50;;;;;;;15.25;9.10;;;;;;;;;;5010373;28;20588;-61
2024/02/15 13:26:37;;;;;;;14.73;9.32;;;;;;;;;;5016768;28;20128;-61
2024/02/15 13:29:32;;;;;;;17.95;9.43;;;;;;;;;;5016688;28;20111;-56
2024/02/15 13:32:20;;;;;;;17.92;9.98;;;;;;;;;;5015842;28;20097;-61
2024/02/15 13:35:16;;;;;;;16.90;10.35;;;;;;;;;;5016200;28;20080;-54
2024/02/15 13:38:02;;;;;;;14.60;9.13;;;;;;;;;;5018052;28;20053;-55
2024/02/15 13:40:57;;;;;;;18.70;11.10;;;;;;;;;;5014531;28;20512;-55
2024/02/15 13:43:43;;;;;;;17.15;10.25;;;;;;;;;;5015138;28;20128;-54
2024/02/15 13:46:37;;;;;;;15.63;10.25;;;;;;;;;;5014783;28;20135;-58
2024/02/15 13:49:24;;;;;;;15.65;10.10;;;;;;;;;;5012716;28;20444;-58
2024/02/15 13:52:18;;;;;;;17.25;10.20;;;;;;;;;;5017164;28;20060;-61
2024/02/15 13:55:05;;;;;;;16.42;10.45;;;;;;;;;;5015749;28;20045;-61
2024/02/15 13:57:59;;;;;;;15.20;9.48;;;;;;;;;;5015143;28;20053;-61
2024/02/15 14:00:53;;;;;;;14.93;10.15;;;;;;;;;;5016877;28;20670;-61
2024/02/15 14:03:47;;;;;;;15.40;9.73;;;;;;;;;;5018690;28;20513;-61
2024/02/15 14:06:36;;;;;;;17.48;10.73;;;;;;;;;;5016848;28;20411;-63
2024/02/15 14:09:28;;;;;;;14.73;9.65;;;;;;;;;;5020160;28;20131;-61
2024/02/15 14:12:27;;;;;;;15.98;9.35;;;;;;;;;;5011636;28;20054;-62
2024/02/15 14:15:22;;;;;;;15.27;9.50;;;;;;;;;;5022019;28;20053;-62
2024/02/15 14:18:19;;;;;;;15.60;9.43;;;;;;;;;;5017910;28;20417;-61
2024/02/15 14:21:13;;;;;;;15.57;9.85;;;;;;;;;;5014884;28;20290;-61
2024/02/15 14:24:08;;;;;;;15.25;9.40;;;;;;;;;;5017509;28;20053;-61
2024/02/15 14:26:54;;;;;;;16.50;10.25;;;;;;;;;;5001345;28;20050;-53
2024/02/15 14:33:00;;;;;;;17.17;10.52;;;;;;;;;;5016263;28;20544;-61
2024/02/15 14:36:00;;;;;;;15.85;9.88;;;;;;;;;;5015661;28;20541;-61
2024/02/15 14:38:48;;;;;;;16.60;9.95;;;;;;;;;;5020005;28;20077;-61
2024/02/15 14:41:42;;;;;;;18.25;9.88;;;;;;;;;;5019455;28;20057;-62
2024/02/15 14:44:44;;;;;;;16.70;9.65;;;;;;;;;;5020164;28;20050;-60
2024/02/15 14:47:38;;;;;;;20.05;11.30;;;;;;;;;;5019827;28;20041;-63
2024/02/15 14:50:25;;;;;;;16.67;10.37;;;;;;;;;;5020010;28;20130;-63
2024/02/15 14:53:20;;;;;;;17.38;9.95;;;;;;;;;;5021465;28;20054;-64
2024/02/15 14:56:15;;;;;;;16.88;10.50;;;;;;;;;;5014847;28;20061;-63
2024/02/15 14:59:09;;;;;;;20.27;11.20;;;;;;;;;;5020956;28;20416;-63
2024/02/15 15:01:59;;;;;;;18.52;11.10;;;;;;;;;;5018875;28;20060;-59
2024/02/15 15:13:14;;;;;;;20.88;10.50;;;;;;;;;;5014701;28;20057;-65
2024/02/15 15:16:09;;;;;;;18.83;11.60;;;;;;;;;;5016858;28;20670;-65
2024/02/15 15:18:56;;;;;;;15.68;9.30;;;;;;;;;;5020294;28;20135;-65
2024/02/15 15:21:56;;;;;;;19.15;11.68;;;;;;;;;;4979467;28;20050;-59
2024/02/15 15:24:44;;;;;;;17.20;11.10;;;;;;;;;;4976101;28;20063;-60
2024/02/15 15:27:39;;;;;;;17.92;11.55;;;;;;;;;;4975630;28;20050;-60
2024/02/15 15:30:25;;;;;;;23.42;11.98;;;;;;;;;;4973535;28;20058;-60
2024/02/15 15:33:20;;;;;;;20.70;11.60;;;;;;;;;;4979030;28;20057;-59
2024/02/15 15:36:06;;;;;;;20.25;11.40;;;;;;;;;;4972233;28;20403;-59
2024/02/15 15:39:08;;;;;;;21.50;11.82;;;;;;;;;;4965652;28;20061;-62
2024/02/15 15:41:48;;;;;;;20.42;12.10;;;;;;;;;;4972657;28;20054;-60
2024/02/15 15:44:43;;;;;;;17.40;10.02;;;;;;;;;;4975254;28;20053;-60
2024/02/15 15:47:31;;;;;;;18.45;11.80;;;;;;;;;;4961419;28;20054;-61
2024/02/15 15:50:24;;;;;;;19.88;11.73;;;;;;;;;;4960430;28;20509;-59
2024/02/15 15:53:18;;;;;;;21.08;11.52;;;;;;;;;;4964270;28;20058;-59
2024/02/15 15:56:13;;;;;;;20.83;12.15;;;;;;;;;;4974300;28;20141;-60
2024/02/15 15:59:00;;;;;;;21.13;11.45;;;;;;;;;;4979545;28;20054;-50
2024/02/15 16:01:54;;;;;;;21.80;12.48;;;;;;;;;;4976202;28;20058;-56
2024/02/15 16:04:47;;;;;;;20.02;11.50;;;;;;;;;;4970923;28;20146;-55
2024/02/15 16:07:43;;;;;;;23.20;12.88;;;;;;;;;;4970652;28;20154;-60
2024/02/15 16:10:31;;;;;;;25.20;12.63;;;;;;;;;;4976535;28;20055;-59
2024/02/15 16:13:26;;;;;;;20.92;11.88;;;;;;;;;;4977244;28;21736;-60
2024/02/15 16:16:14;;;;;;;25.02;12.95;;;;;;;;;;4980332;28;20070;-47
2024/02/15 16:19:19;;;;;;;20.88;12.05;;;;;;;;;;4978613;28;20058;-51
2024/02/15 16:22:07;;;;;;;22.85;12.27;;;;;;;;;;4971158;28;20510;-48
2024/02/15 16:25:08;;;;;;;23.92;12.68;;;;;;;;;;4975384;28;20046;-50
2024/02/15 16:27:55;;;;;;;26.83;12.70;;;;;;;;;;4982127;28;20120;-46
2024/02/15 16:30:49;;;;;;;22.55;13.05;;;;;;;;;;4973449;28;20046;-51
2024/02/15 16:33:42;;;;;;;20.15;10.90;;;;;;;;;;4970296;28;20568;-49
2024/02/15 16:36:36;;;;;;;22.50;12.15;;;;;;;;;;4971813;28;20104;-56
2024/02/15 16:39:30;;;;;;;25.23;13.07;;;;;;;;;;4974005;28;20513;-56
2024/02/15 16:42:18;;;;;;;21.90;13.07;;;;;;;;;;4969906;28;20042;-57
2024/02/15 16:45:14;;;;;;;20.27;10.55;;;;;;;;;;4966903;28;20138;-58
2024/02/15 16:48:04;;;;;;;19.05;10.50;;;;;;;;;;4973135;28;20081;-56
2024/02/15 16:50:57;;;;;;;30.10;13.60;;;;;;;;;;4977327;28;20497;-58
2024/02/15 16:53:43;;;;;;;22.23;12.60;;;;;;;;;;4974081;28;20437;-49
2024/02/15 16:56:58;;;;;;;22.67;12.25;;;;;;;;;;4972194;28;20058;-65
2024/02/15 16:59:51;;;;;;;24.70;12.50;;;;;;;;;;4971264;28;20051;-66
2024/02/15 17:02:45;;;;;;;27.63;12.93;;;;;;;;;;4973592;28;20081;-64
2024/02/15 17:05:40;;;;;;;23.35;12.45;;;;;;;;;;4972160;28;20058;-64
2024/02/15 17:08:33;;;;;;;23.95;12.63;;;;;;;;;;4977482;28;20137;-65
2024/02/15 17:11:27;;;;;;;23.77;11.55;;;;;;;;;;4975685;28;20046;-58
2024/02/15 17:14:14;;;;;;;24.00;12.60;;;;;;;;;;4976243;28;20254;-64
